Portada
METAR-TAF:

METAR-TAF

Aeropuertos :

Aghajari, Irán

latitud: 30-46N, longitud: 049-40E, altitud: 29 m

Observación

El informe se hizo hace 31 minutos, a las 04:00 UTC
Viento 4 kt del norte-noroeste
Temperatura 13°C
Humedad 72%
Presión 1014 hPa
Visibilidad 10 km o más
sin nubes por debajo de 1500 m y sin presencia de cumulonimbus.

METAR: OIAG 090400Z 33004KT CAVOK 13/08 Q1014

Hora: 08:01 (04:31 UTC)


TAF: falta

Observaciones y pronósticos meteorológicos de más de 4000 aeropuertos (mensajes METAR y TAF).

Los puntos amarillos y rojos representan las estaciones disponibles.

Ponga el ratón en el punto deseado para ver el nombre de la estación.

Haga clic para ver las observaciones y los pronósticos meteorológicos.

Para cambiar el mapa : haga clic en los botones verdes con una cruz de color negro para hacer un zoom, en el botón verde con un guión para alejar o en las flechas verdes para mapas adyacentes.


METAR-TAF: